Muikaichi, Japan

10:54 AM JST on February 21, 2017 (GMT +0900)
県道69号線 | | Change Station

Elev 564 ft 34.20 °N, 131.92 °E | Updated 3 minutes ago

Mostly Cloudy
Mostly Cloudy
43.7 °F
Feels Like 40 °F
N
5.6
Wind Variable Wind from NW
Gusts 11.2 mph

Today
High -- | Low -- °F
--% Chance of Precip.
Yesterday
High -- | Low -- °F
Precip. -- in
Pressure 30.36 in
Visibility 6.2 miles
Clouds Few 3500 ft
Mostly Cloudy 4000 ft
Windchill 40 °F
Dew Point 32 °F
Humidity 62%
Rainfall 0.00 in
Snow Depth Not available.
6:51 AM 6:01 PM
Waning Crescent, 29% visible
METAR RJOW 210100Z 01008KT 310V070 9999 FEW035 BKN040 05/M03 Q1028
Pressure 30.36 in
Visibility 6.2 miles
Clouds Few 3500 ft
Mostly Cloudy 4000 ft
Windchill 40 °F
Dew Point 32 °F
Humidity 62%
Rainfall 0.00 in
Snow Depth Not available.
6:51 AM 6:01 PM
Waning Crescent, 29% visible
METAR RJOW 210100Z 01008KT 310V070 9999 FEW035 BKN040 05/M03 Q1028

Get Your Daily Forecast Email!

Thanks for signing up!

Be on the lookout for a verification email in your inbox.

You'll start receiving the daily forecast at 8 AM.

×

10-Day Weather Forecast

No radar image for this location.
×

Almanac

Astronomy

Feb. 21, 2017 Rise Set
Actual Time
Civil Twilight
Nautical Twilight
Astronomical Twilight
Moon
Length of Visible Light
Length of Day
Tomorrow will be .
, % of the Moon is Illuminated

Today's Extremes

Country Highs Country Lows

Community

WunderPhotos

Upload Photos

1,962,540 photos uploaded!

WunderBlog® & News

Nearby

Air Quality

  Air Quality AQ Index Pollutant
Not available.

Snow Depth

Station Depth Elevation

Earthquake Activity

City Distance Mag. Time & Date
Minimum magnitude displayed is 2.5.

Coastal Water Temperatures

Place Temperature

Stations

Nearby Weather Stations

Station Location Temp. Windchill Dew Point Humidity Wind Precip. Elev Updated Type